x

San Clemente Basin - 27nm Se Of San Clemente Is, Ca (46086) Wave Buoy

3:50am - Fri 1st Aug 2014 All times are PDT. -7 hours from GMT.

  • Sig Wave height 4.3ft
  • Swell Direction
  • Peak Period 6s
  • Average Period 6s
  • Wind
    9mph, 11mph gusts
  • Sea Temp 70°f
  • Air Temp 67°f
  • Sea Pressure 1012.9mb
  • San Clemente Basin - 27nm Se Of San Clemente Is, Ca
  • San Clemente Basin - 27nm Se Of San Clemente Is, Ca

More Historic Weather Station data

Upgrade to MSW Pro to gain access to the past 30 days of data for over 8000 Wavebouys and Weather Stations around the globe.

Join Pro

Comparision Forecast

View Surf forecast
   
Fri 08/01 3:50am 4.5ft 6s 6s 9 11 mph 1012.9mb 70f 67f
2:50am 4.5ft 7s 6s 11 13 mph 1012.6mb 70f 67f
1:50am 4.5ft 7s 6s 7 9 mph 1013.1mb 70f 67f
12:50am 4.5ft 7s 6s 11 13 mph 1013.3mb 71f 67f
Thu 07/31 11:50pm 4ft 7s 5s 9 13 mph 1013.4mb 70f 67f
10:50pm 4.5ft 7s 6s 9 11 mph 1013.7mb 71f 67f
9:50pm 4.5ft 6s 5s 11 16 mph 1013.4mb 71f 67f
8:50pm 4.5ft 7s 5s 13 16 mph 1012.8mb 71f 67f
7:50pm 5ft 6s 5s 16 18 mph 1012.2mb 71f 68f
6:50pm 5ft 6s 5s 18 22 mph 1011.5mb 71f 68f
5:50pm 4.5ft 7s 5s 18 22 mph 1011.4mb 71f 68f
4:50pm 4.5ft 7s 5s 18 20 mph 1011.8mb 71f 68f
3:50pm 4.5ft 7s 5s 18 22 mph 1011.9mb 71f 68f
2:50pm 4.5ft 7s 5s 18 20 mph 1012.5mb 71f 68f
1:50pm 4.5ft 7s 5s 18 20 mph 1012.8mb 71f 68f
12:50pm 4.5ft 7s 5s 16 18 mph 1013.3mb 71f 68f
11:50am 4.5ft 7s 6s 16 18 mph 1013.5mb 71f 68f
10:50am 4.5ft 7s 6s 13 18 mph 1013.9mb 71f 68f
9:50am 5ft 7s 6s 13 18 mph 1013.8mb 71f 68f
8:50am 4.5ft 7s 6s 16 20 mph 1013.4mb 71f 68f
7:50am 4.5ft 7s 6s 13 16 mph 1013.8mb 71f 68f
6:50am 4.5ft 7s 6s 11 13 mph 1014mb 71f 68f
5:50am 4.5ft 7s 6s 13 16 mph 1013mb 71f 68f
4:50am 4.5ft 6s 5s 13 16 mph 1013.1mb 71f 69f
3:50am 4.5ft 6s 5s 13 16 mph 1013mb 71f 68f
2:50am 4.5ft 6s 5s 18 20 mph 1012.7mb 71f 69f
1:50am 4.5ft 7s 5s 13 18 mph 1013.4mb 71f 69f
12:50am 4.5ft 6s 6s 16 18 mph 1013.5mb 71f 69f
Wed 07/30 11:50pm 4ft 6s 6s 13 16 mph 1013.9mb 71f 69f
10:50pm 4.5ft 6s 5s 13
mph
1013.8mb 71f 70f
9:50pm 4.5ft 6s 5s 13 16 mph 1013.7mb 71f 70f
8:50pm 4.5ft 6s 5s 13 18 mph 1013.6mb 71f 69f
7:50pm 4.5ft 6s 5s 16 20 mph 1012.9mb 71f 69f
6:50pm 4ft 6s 5s 18 20 mph 1012.5mb 72f 70f
5:50pm 4ft 6s 5s 18 20 mph 1012.4mb 72f 70f
4:50pm 3.5ft 6s 5s 16 18 mph 1013.2mb 72f 70f
3:50pm 3.5ft 6s 5s 18 20 mph 1013.2mb 72f 69f
2:50pm 4ft 13s 5s 18 20 mph 1013.8mb 72f 69f
1:50pm 3.5ft 6s 5s 16 18 mph 1014.3mb 71f 69f
12:50pm 3.5ft 13s 6s 16 18 mph 1014.4mb 71f 69f
11:50am 3.5ft 6s 6s 11 13 mph 1015mb 71f 69f
10:50am 3.5ft 6s 6s 13
mph
1014.9mb 71f 69f
9:50am 3.5ft 6s 6s 11 13 mph 1014.8mb 71f 69f
8:50am 3.5ft 10s 6s 11 13 mph 1014.9mb 71f 69f
7:50am 3.5ft 6s 6s 7 9 mph 1014.7mb 71f 69f
6:50am 3.5ft 13s 6s 9 11 mph 1014.3mb 71f 69f
5:50am 3.5ft 6s 5s 11 13 mph 1013.8mb 71f 69f
4:50am 3.5ft 6s 6s 11 13 mph 1013.6mb 72f 69f
3:50am 3.5ft 6s 6s 13 16 mph 1013.9mb 72f 69f
2:50am 3.5ft 10s 6s 9 11 mph 1014.1mb 72f 70f
1:50am 3.5ft 10s 6s 7
mph
1014.2mb 72f 70f
12:50am 3.5ft 10s 5s 11 13 mph 1014.3mb 72f 70f
Tue 07/29 11:50pm 3.5ft 11s 6s 11 13 mph 1014.6mb 72f 70f
10:50pm 3.5ft 11s 5s 11 13 mph 1015.1mb 72f 70f
9:50pm 3.5ft 11s 5s 13 16 mph 1015.3mb 72f 70f
8:50pm 3.5ft 14s 5s 13 18 mph 1014.9mb 72f 70f
7:50pm 3.5ft 11s 5s 16 18 mph 1014.6mb 72f 70f
6:50pm 3ft 13s 5s 18 20 mph 1014.1mb 72f 70f
5:50pm 3ft 11s 5s 16 18 mph 1014.2mb 72f 70f
4:50pm 3ft 14s 5s 16 18 mph 1014.5mb 72f 70f
3:50pm 2.5ft 14s 5s 13 16 mph 1015mb 73f 70f
2:50pm 3ft 13s 5s 9
mph
1015.8mb 72f 70f
1:50pm 2.5ft 13s 5s 9
mph
1015.8mb 72f 71f
12:50pm 3ft 14s 5s 9 11 mph 1016.1mb 71f 70f
11:50am 2.5ft 13s 5s 13 16 mph 1016.5mb 71f 70f
10:50am 2.5ft 13s 5s 11 13 mph 1017.2mb 71f 70f
9:50am 2.5ft 15s 6s 13 16 mph 1017mb 71f 69f
8:50am 3ft 14s 6s 13
mph
1017.4mb 71f 70f
7:50am 2.5ft 14s 6s 7 9 mph 1017.1mb 71f 70f
6:50am 2.5ft 14s 6s 9 11 mph 1016.5mb 71f 70f
5:50am 3ft 14s 6s 11 13 mph 1016mb 71f 70f
4:50am 3ft 13s 6s 9 11 mph 1016.2mb 71f 69f
3:50am 3ft 14s 5s 4 7 mph 1016.6mb 71f 70f
2:50am 3.5ft 14s 5s 4 7 mph 1016.5mb 71f 70f
1:50am 3.5ft 14s 6s 7
mph
1016.6mb 71f 70f
12:50am 3ft 14s 5s 4
mph
1016.9mb 71f 70f
Mon 07/28 11:50pm 3.5ft 14s 5s 9 11 mph 1017mb 71f 70f
10:50pm 3.5ft 14s 5s 7 9 mph 1017.1mb 71f 71f
9:50pm 3.5ft 13s 5s 18 20 mph 1016.8mb 71f 71f
8:50pm 3.5ft 14s 5s 13 16 mph 1016.2mb 72f 71f
7:50pm 3ft 13s 5s 16 20 mph 1015.4mb 71f 70f
6:50pm 3ft 14s 5s 18 22 mph 1015mb 71f 70f
5:50pm 2.5ft 14s 6s 16 18 mph 1015.3mb 72f 71f
4:50pm 3ft 14s 6s 9 11 mph 1015.6mb 72f 72f
3:50pm 2.5ft 14s 6s 13 16 mph 1015.8mb 72f 71f
2:50pm 3ft 14s 7s 13 16 mph 1016.7mb 72f 71f
1:50pm 3ft 14s 8s 9 11 mph 1017.4mb 72f 71f
12:50pm 3ft 14s 7s 7 9 mph 1017.8mb 73f 71f